Terminal Aerodrome Forecast
Issued by NWS

Home | Current Version | Previous Version | Text Only | Print | Product List | Glossary On
Versions: 1 2 3 4 5 6 7 8 9 10 11 12 13
590
FTPA31 PHFO 281734
TAFHJH
TAF
PHJH 281734Z 2818/2918 03014G20KT P6SM SCT030 SCT050
     FM282100 05018G26KT P6SM SCT030 SCT050
     FM290500 05014G20KT P6SM SCT030 SCT050
      AMD NOT SKED 2904/2918=

USA.gov is the U.S. government's official web portal to all federal, state and local government web resources and services.